Time;durP1;ratioP1;P1;durP2;ratioP2;P2;SDS_P1;SDS_P2;PMS_P1;PMS_P2;Temp;Humidity;BMP_temperature;BMP_pressure;BME280_temperature;BME280_humidity;BME280_pressure;Samples;Min_cycle;Max_cycle;Signal;HPM_P1;HPM_P2
2023/01/02 00:01:13;;;;;;;52.30;29.50;;;6.50;99.90;;;6.40;65.81;96321.78;4977176;28;20456;-55
2023/01/02 00:03:41;;;;;;;56.23;28.73;;;6.50;99.90;;;6.39;65.72;96326.16;4980402;28;20610;-56
2023/01/02 00:06:08;;;;;;;57.93;27.27;;;6.50;99.90;;;6.39;65.82;96325.31;4977879;28;20521;-52
2023/01/02 00:08:35;;;;;;;55.90;28.10;;;6.50;99.90;;;6.35;65.67;96324.63;4984755;28;20552;-56
2023/01/02 00:11:03;;;;;;;52.13;27.73;;;6.50;99.90;;;6.32;65.68;96324.78;4978843;28;20459;-56
2023/01/02 00:13:30;;;;;;;52.20;27.03;;;6.50;99.90;;;6.31;65.82;96320.47;4983636;28;20482;-57
2023/01/02 00:15:57;;;;;;;49.07;27.07;;;6.40;99.90;;;6.31;65.80;96317.88;4981128;28;20900;-56
2023/01/02 00:18:26;;;;;;;55.90;29.40;;;6.40;99.90;;;6.27;65.56;96322.41;4982851;28;20474;-56
2023/01/02 00:20:53;;;;;;;55.63;30.27;;;6.40;99.90;;;6.27;65.36;96318.94;4981468;28;20471;-55
2023/01/02 00:23:20;;;;;;;54.90;29.13;;;6.40;99.90;;;6.24;65.85;96316.47;4979045;28;20577;-55
2023/01/02 00:25:48;;;;;;;60.43;29.53;;;6.40;99.90;;;6.24;65.39;96322.56;4981310;28;20966;-55
2023/01/02 00:28:16;;;;;;;62.33;33.13;;;6.30;99.90;;;6.23;65.90;96314.81;4974093;28;20983;-53
2023/01/02 00:30:43;;;;;;;52.60;29.40;;;6.30;99.90;;;6.21;66.03;96320.13;4983161;28;20548;-53
2023/01/02 00:33:10;;;;;;;48.17;28.37;;;6.30;99.90;;;6.20;65.47;96320.19;4977369;28;20501;-57
2023/01/02 00:35:39;;;;;;;47.83;27.03;;;6.30;99.90;;;6.18;65.54;96316.78;4982044;28;21200;-57
2023/01/02 00:38:06;;;;;;;54.13;27.73;;;6.30;99.90;;;6.17;65.84;96315.13;4980634;28;20956;-56
2023/01/02 00:40:33;;;;;;;54.57;29.60;;;6.30;99.90;;;6.14;65.71;96316.09;4982406;28;20846;-53
2023/01/02 00:43:01;;;;;;;58.30;29.93;;;6.30;99.90;;;6.14;65.51;96315.28;4981990;28;20800;-55
2023/01/02 00:45:28;;;;;;;58.47;32.30;;;6.20;99.90;;;6.14;66.13;96313.50;4978989;28;20447;-55
2023/01/02 00:47:55;;;;;;;62.67;32.13;;;6.20;99.90;;;6.12;66.06;96319.72;4979632;28;20533;-54
2023/01/02 00:50:22;;;;;;;64.37;33.83;;;6.20;99.90;;;6.10;65.96;96323.25;4980319;28;20510;-55
2023/01/02 00:52:51;;;;;;;76.20;37.33;;;6.20;99.90;;;6.09;65.45;96324.16;4978726;28;21043;-56
2023/01/02 00:55:18;;;;;;;73.60;33.47;;;6.20;99.90;;;6.07;66.09;96328.63;4977926;28;20470;-56
2023/01/02 00:57:45;;;;;;;69.50;36.20;;;6.20;99.90;;;6.06;65.88;96328.72;4983201;28;20530;-56
2023/01/02 01:00:15;;;;;;;73.90;38.83;;;6.20;99.90;;;6.02;65.50;96320.16;4980165;28;20975;-57
2023/01/02 01:02:42;;;;;;;78.03;41.70;;;6.10;99.90;;;5.99;65.39;96328.16;4975102;28;20471;-55
2023/01/02 01:05:10;;;;;;;80.80;41.47;;;6.10;99.90;;;5.97;65.69;96324.78;4977600;28;20458;-55
2023/01/02 01:07:40;;;;;;;66.03;38.10;;;6.10;99.90;;;5.96;65.58;96327.44;4976077;28;20479;-55
2023/01/02 01:10:09;;;;;;;74.93;39.23;;;6.10;99.90;;;5.93;66.13;96316.22;4978264;28;20467;-54
2023/01/02 01:12:36;;;;;;;70.30;37.90;;;6.10;99.90;;;5.93;66.31;96310.13;4982675;28;20502;-56
2023/01/02 01:15:04;;;;;;;74.27;38.63;;;6.00;99.90;;;5.93;66.08;96317.97;4979058;28;20455;-55
2023/01/02 01:17:32;;;;;;;76.83;38.07;;;6.00;99.90;;;5.94;66.59;96317.06;4975774;28;20509;-56
2023/01/02 01:19:59;;;;;;;77.33;40.00;;;6.00;99.90;;;5.94;66.33;96309.22;4975051;28;20458;-53
2023/01/02 01:22:26;;;;;;;77.43;37.27;;;6.00;99.90;;;5.94;65.88;96319.69;4982135;28;21034;-53
2023/01/02 01:24:54;;;;;;;61.67;34.43;;;6.00;99.90;;;5.92;65.99;96319.75;4977604;28;20513;-55
2023/01/02 01:27:22;;;;;;;65.20;33.70;;;6.00;99.90;;;5.90;65.79;96311.16;4978904;28;20536;-54
2023/01/02 01:29:50;;;;;;;59.63;33.07;;;6.00;99.90;;;5.86;65.43;96311.38;4976039;28;20462;-56
2023/01/02 01:32:17;;;;;;;69.57;34.00;;;6.00;99.90;;;5.82;65.54;96312.44;4976501;28;20516;-55
2023/01/02 01:34:44;;;;;;;67.73;33.50;;;6.00;99.90;;;5.78;65.95;96313.50;4973029;28;20470;-56
2023/01/02 01:37:12;;;;;;;60.50;31.77;;;5.90;99.90;;;5.77;65.89;96306.59;4978155;28;20482;-55
2023/01/02 01:39:39;;;;;;;66.47;32.13;;;5.90;99.90;;;5.75;65.61;96311.91;4979057;28;21018;-56
2023/01/02 01:42:09;;;;;;;63.27;30.87;;;5.90;99.90;;;5.72;65.85;96309.44;4976683;28;20909;-57
2023/01/02 01:44:47;;;;;;;59.73;31.57;;;5.80;99.90;;;5.69;66.35;96302.59;4981558;28;20456;-56
2023/01/02 01:47:24;;;;;;;67.93;32.80;;;5.80;99.90;;;5.68;66.62;96303.50;4978329;28;20470;-55
2023/01/02 01:49:53;;;;;;;74.07;33.77;;;5.80;99.90;;;5.66;66.01;96292.31;4977421;28;20450;-57
2023/01/02 01:52:23;;;;;;;64.70;32.13;;;5.80;99.90;;;5.66;66.25;96300.13;4981060;28;20553;-54
2023/01/02 01:54:53;;;;;;;61.73;31.70;;;5.80;99.90;;;5.65;66.10;96298.44;4977622;28;20537;-55
2023/01/02 01:57:23;;;;;;;82.00;37.53;;;5.80;99.90;;;5.63;66.28;96289.84;4976238;28;20478;-56
2023/01/02 01:59:52;;;;;;;73.53;34.83;;;5.70;99.90;;;5.61;66.15;96291.69;4978432;28;20455;-56
2023/01/02 02:02:19;;;;;;;66.80;31.00;;;5.70;99.90;;;5.61;66.17;96291.69;4975432;28;21031;-56
2023/01/02 02:04:46;;;;;;;63.10;29.27;;;5.70;99.90;;;5.60;65.87;96290.00;4978233;28;21049;-55
2023/01/02 02:07:14;;;;;;;60.17;30.13;;;5.70;99.90;;;5.60;66.26;96294.38;4982148;28;20486;-55
2023/01/02 02:09:44;;;;;;;52.17;29.70;;;5.70;99.90;;;5.57;66.47;96290.97;4978464;28;20455;-54
2023/01/02 02:12:11;;;;;;;50.80;28.33;;;5.70;99.90;;;5.57;66.45;96290.13;4976383;28;20901;-55
2023/01/02 02:14:38;;;;;;;48.70;26.30;;;5.70;99.90;;;5.55;66.14;96292.81;4977749;28;20479;-56
2023/01/02 02:17:15;;;;;;;45.60;27.20;;;5.70;99.90;;;5.55;66.56;96292.81;4977332;28;20490;-55
2023/01/02 02:20:10;;;;;;;45.83;26.43;;;5.70;99.90;;;5.54;66.36;96285.91;4980257;28;20980;-55
2023/01/02 02:23:17;;;;;;;49.03;24.70;;;5.70;99.90;;;5.53;66.00;96293.81;4977970;28;20541;-56
2023/01/02 02:26:38;;;;;;;40.23;23.50;;;5.60;99.90;;;5.50;66.45;96293.94;4977728;28;20470;-56
2023/01/02 02:30:10;;;;;;;43.17;23.67;;;5.70;99.90;;;5.47;66.32;96300.19;4937152;28;20482;-57
2023/01/02 02:33:05;;;;;;;47.27;26.40;;;5.60;99.90;;;5.46;66.21;96295.88;4912993;28;20506;-56
2023/01/02 02:35:42;;;;;;;49.60;25.20;;;5.60;99.90;;;5.46;66.22;96293.25;4978331;28;21001;-54
2023/01/02 02:38:14;;;;;;;48.73;24.00;;;5.60;99.90;;;5.45;65.96;96298.56;4976599;28;20478;-57
2023/01/02 02:40:50;;;;;;;45.67;25.83;;;5.60;99.90;;;5.43;66.25;96284.75;4978870;28;20454;-56
2023/01/02 02:43:22;;;;;;;46.40;25.40;;;5.50;99.90;;;5.42;66.04;96280.44;4974542;28;20553;-55
2023/01/02 02:45:55;;;;;;;43.63;25.27;;;5.60;99.90;;;5.39;66.49;96281.41;4977880;28;20454;-59
2023/01/02 02:48:27;;;;;;;35.83;21.67;;;5.50;99.90;;;5.37;66.44;96283.25;4978535;28;21042;-56
2023/01/02 02:50:59;;;;;;;41.33;21.67;;;5.50;99.90;;;5.35;66.44;96279.91;4976999;28;20460;-56
2023/01/02 02:53:29;;;;;;;36.70;20.23;;;5.50;99.90;;;5.34;66.82;96272.97;4978003;28;20579;-56
2023/01/02 02:55:59;;;;;;;30.67;19.37;;;5.50;99.90;;;5.31;66.50;96271.34;4975526;28;20464;-55
2023/01/02 02:58:28;;;;;;;36.73;19.20;;;5.40;99.90;;;5.32;66.25;96272.22;4974999;28;20530;-58
2023/01/02 03:01:02;;;;;;;32.17;20.40;;;5.40;99.90;;;5.31;66.80;96267.91;4979024;28;20478;-56
2023/01/02 03:03:30;;;;;;;36.70;20.60;;;5.40;99.90;;;5.31;66.58;96268.75;4975992;28;20481;-54
2023/01/02 03:06:09;;;;;;;31.40;18.13;;;5.40;99.90;;;5.30;66.40;96271.41;4976932;28;20890;-55
2023/01/02 03:08:41;;;;;;;37.03;17.17;;;5.50;99.90;;;5.29;66.24;96265.38;4977200;28;20566;-56
2023/01/02 03:11:08;;;;;;;41.40;21.80;;;5.40;99.90;;;5.28;66.52;96258.44;4979465;28;20459;-55
2023/01/02 03:13:40;;;;;;;44.10;20.13;;;5.40;99.90;;;5.28;66.10;96262.84;4978849;28;21002;-56
2023/01/02 03:16:12;;;;;;;34.97;20.20;;;5.40;99.90;;;5.26;66.23;96264.69;4975940;28;20459;-56
2023/01/02 03:18:43;;;;;;;34.80;20.93;;;5.40;99.90;;;5.23;65.97;96267.44;4976133;28;20490;-56
2023/01/02 03:21:12;;;;;;;40.20;20.00;;;5.40;99.90;;;5.21;66.16;96259.69;4976006;28;20451;-55
2023/01/02 03:23:43;;;;;;;38.47;20.90;;;5.40;99.90;;;5.19;66.16;96271.97;4976367;28;20482;-57
2023/01/02 03:26:10;;;;;;;36.33;20.20;;;5.40;99.90;;;5.18;66.12;96267.66;4976373;28;20956;-56
2023/01/02 03:28:38;;;;;;;35.00;20.20;;;5.30;99.90;;;5.15;66.39;96278.22;4974599;28;20491;-57
2023/01/02 03:31:06;;;;;;;44.60;23.77;;;5.30;99.90;;;5.15;66.09;96278.22;4977948;28;21301;-55
2023/01/02 03:33:38;;;;;;;40.13;22.80;;;5.30;99.90;;;5.14;66.52;96274.78;4981775;28;20572;-55
2023/01/02 03:36:09;;;;;;;42.70;21.43;;;5.30;99.90;;;5.14;66.63;96277.38;4983512;28;20473;-54
2023/01/02 03:38:41;;;;;;;37.73;21.30;;;5.30;99.90;;;5.13;66.44;96277.47;4977625;28;20486;-56
2023/01/02 03:41:11;;;;;;;42.20;23.20;;;5.30;99.90;;;5.14;66.41;96276.53;4981669;28;20545;-56
2023/01/02 03:43:39;;;;;;;42.70;23.57;;;5.30;99.90;;;5.14;67.04;96286.94;4981012;28;21129;-56
2023/01/02 03:46:10;;;;;;;40.40;24.23;;;5.30;99.90;;;5.15;66.96;96289.50;4980602;28;20450;-56
2023/01/02 03:48:42;;;;;;;43.03;23.93;;;5.30;99.90;;;5.17;66.77;96286.81;4981209;28;20482;-56
2023/01/02 03:51:09;;;;;;;43.57;24.53;;;5.30;99.90;;;5.17;67.15;96292.03;4981956;28;20459;-55
2023/01/02 03:53:37;;;;;;;43.20;23.10;;;5.30;99.90;;;5.18;66.92;96298.94;4981076;28;20610;-56
2023/01/02 03:56:13;;;;;;;38.87;22.20;;;5.30;99.90;;;5.19;66.77;96298.03;4977566;28;20960;-56
2023/01/02 03:58:47;;;;;;;40.80;22.37;;;5.30;99.90;;;5.20;66.88;96291.88;4981674;28;20470;-56
2023/01/02 04:01:20;;;;;;;37.10;22.93;;;5.30;99.90;;;5.20;66.71;96291.88;4977280;28;20451;-56
2023/01/02 04:03:50;;;;;;;37.07;21.90;;;5.30;99.90;;;5.21;66.95;96298.81;4974971;28;20470;-56
2023/01/02 04:06:19;;;;;;;45.50;21.80;;;5.30;99.90;;;5.19;66.84;96296.25;4981997;28;20477;-56
2023/01/02 04:08:49;;;;;;;37.83;22.97;;;5.30;99.90;;;5.21;66.75;96298.81;4979754;28;20503;-56
2023/01/02 04:11:18;;;;;;;38.20;21.63;;;5.30;99.90;;;5.19;66.57;96293.66;4982722;28;20455;-56
2023/01/02 04:13:48;;;;;;;39.70;21.83;;;5.30;99.90;;;5.18;66.52;96299.78;4981782;28;21001;-56
2023/01/02 04:16:19;;;;;;;47.20;21.60;;;5.30;99.90;;;5.16;66.64;96292.97;4982425;28;20531;-55
2023/01/02 04:18:50;;;;;;;40.80;22.50;;;5.30;99.90;;;5.14;66.47;96302.59;4977685;28;20490;-54
2023/01/02 04:21:20;;;;;;;41.43;22.73;;;5.30;99.90;;;5.13;67.14;96303.53;4979575;28;20459;-56
2023/01/02 04:23:48;;;;;;;41.77;24.03;;;5.30;99.90;;;5.14;67.06;96313.03;4980167;28;20556;-55
2023/01/02 04:26:18;;;;;;;40.97;22.10;;;5.20;99.90;;;5.14;67.13;96321.72;4979226;28;20463;-56
2023/01/02 04:28:45;;;;;;;45.17;23.30;;;5.30;99.90;;;5.13;66.95;96317.41;4978561;28;20494;-54
2023/01/02 04:31:17;;;;;;;50.50;26.00;;;5.20;99.90;;;5.13;66.61;96311.38;4980818;28;20456;-56
2023/01/02 04:33:45;;;;;;;51.27;24.47;;;5.20;99.90;;;5.13;67.23;96316.56;4978181;28;20494;-57
2023/01/02 04:36:15;;;;;;;44.10;23.77;;;5.20;99.90;;;5.12;66.81;96315.72;4983321;28;21690;-58
2023/01/02 04:38:44;;;;;;;56.30;23.70;;;5.20;99.90;;;5.12;67.26;96320.94;4983417;28;20482;-54
2023/01/02 04:41:13;;;;;;;61.10;24.30;;;5.20;99.90;;;5.11;66.96;96316.66;4982701;28;20898;-55
2023/01/02 04:43:40;;;;;;;45.80;23.83;;;5.20;99.90;;;5.11;66.83;96323.59;4980205;28;20568;-53
2023/01/02 04:46:07;;;;;;;48.23;24.87;;;5.20;99.90;;;5.06;66.79;96321.22;4985602;28;20447;-55
2023/01/02 04:48:34;;;;;;;46.57;24.17;;;5.20;99.90;;;5.02;67.29;96320.50;4981140;28;20486;-55
2023/01/02 04:51:02;;;;;;;41.07;22.43;;;5.20;99.90;;;4.98;66.63;96324.16;4980541;28;20461;-53
2023/01/02 04:53:30;;;;;;;40.57;23.37;;;5.20;99.90;;;4.94;66.62;96317.41;4983001;28;20506;-55
2023/01/02 04:55:57;;;;;;;42.00;23.10;;;5.10;99.90;;;4.91;66.76;96312.34;4978330;28;20463;-56
2023/01/02 04:58:26;;;;;;;36.90;21.90;;;5.10;99.90;;;4.88;66.88;96316.81;4980688;28;20474;-55
2023/01/02 05:00:54;;;;;;;37.17;20.93;;;5.00;99.90;;;4.84;66.48;96316.97;4979639;28;20469;-56
2023/01/02 05:03:21;;;;;;;33.73;20.83;;;5.00;99.90;;;4.84;66.60;96318.75;4978108;28;20532;-55
2023/01/02 05:05:48;;;;;;;40.47;22.00;;;5.00;99.90;;;4.82;66.92;96323.19;4983710;28;20800;-56
2023/01/02 05:08:15;;;;;;;38.20;22.27;;;5.00;99.90;;;4.83;66.80;96322.25;4978810;28;20490;-54
2023/01/02 05:10:44;;;;;;;43.47;24.17;;;5.00;99.90;;;4.82;66.56;96323.19;4979163;28;20891;-56
2023/01/02 05:13:11;;;;;;;52.33;24.07;;;5.00;99.90;;;4.82;67.04;96317.97;4979161;28;21014;-56
2023/01/02 05:15:38;;;;;;;47.23;22.57;;;5.00;99.90;;;4.80;66.62;96320.66;4980847;28;20475;-55
2023/01/02 05:18:06;;;;;;;47.77;23.63;;;4.90;99.90;;;4.78;66.59;96313.78;4984302;28;20482;-58
2023/01/02 05:20:33;;;;;;;47.80;25.40;;;4.90;99.90;;;4.79;66.59;96312.91;4978487;28;20489;-56
2023/01/02 05:25:46;;;;;;;52.10;27.10;;;4.90;99.90;;;4.79;66.64;96315.50;4978370;28;20453;-54
2023/01/02 05:28:13;;;;;;;64.43;29.43;;;4.90;99.90;;;4.79;66.47;96312.91;4976361;28;20479;-56
2023/01/02 05:30:40;;;;;;;47.40;25.90;;;4.90;99.90;;;4.76;66.29;96307.81;4979443;28;20540;-53
2023/01/02 05:33:08;;;;;;;59.70;30.50;;;4.90;99.90;;;4.74;66.25;96309.63;4977391;28;20482;-56
2023/01/02 05:35:35;;;;;;;90.57;36.57;;;4.90;99.90;;;4.67;66.00;96311.66;4980775;28;20467;-55
2023/01/02 05:38:02;;;;;;;92.80;40.20;;;4.90;99.90;;;4.61;66.15;96317.16;4977923;28;20472;-54
2023/01/02 05:40:29;;;;;;;84.53;37.70;;;4.80;99.90;;;4.54;66.28;96319.19;4978015;28;20458;-56
2023/01/02 05:42:58;;;;;;;72.17;35.77;;;4.70;99.90;;;4.49;66.29;96311.56;4984771;28;20466;-56
2023/01/02 05:45:26;;;;;;;77.90;37.77;;;4.70;99.90;;;4.49;66.46;96331.53;4974876;28;20520;-56
2023/01/02 05:47:53;;;;;;;73.93;37.23;;;4.70;99.90;;;4.49;66.71;96336.75;4978352;28;20558;-56
2023/01/02 05:50:20;;;;;;;94.90;36.97;;;4.70;99.90;;;4.48;66.55;96335.09;4979323;28;20458;-55
2023/01/02 05:52:47;;;;;;;79.93;39.80;;;4.60;99.90;;;4.48;66.39;96330.72;4976912;28;20479;-53
2023/01/02 05:55:15;;;;;;;73.63;37.57;;;4.60;99.90;;;4.47;66.35;96330.78;4976159;28;20507;-56
2023/01/02 05:57:42;;;;;;;80.97;35.83;;;4.60;99.90;;;4.48;66.96;96335.09;4978518;28;20475;-57
2023/01/02 06:00:13;;;;;;;88.07;38.43;;;4.60;99.90;;;4.48;66.47;96340.31;4978575;28;20577;-55
2023/01/02 06:02:40;;;;;;;78.40;39.37;;;4.60;99.90;;;4.49;66.62;96331.53;4975632;28;20479;-58
2023/01/02 06:05:09;;;;;;;80.67;40.57;;;4.60;99.90;;;4.49;66.51;96335.03;4974937;28;20565;-56
2023/01/02 06:07:36;;;;;;;80.40;39.87;;;4.70;99.90;;;4.51;66.44;96339.31;4979698;28;20963;-54
2023/01/02 06:10:03;;;;;;;75.40;39.30;;;4.70;99.90;;;4.53;66.58;96340.09;4975885;28;20458;-56
2023/01/02 06:12:31;;;;;;;80.87;40.43;;;4.70;99.90;;;4.55;66.33;96340.88;4976990;28;21068;-54
2023/01/02 06:14:58;;;;;;;75.27;38.63;;;4.70;99.90;;;4.56;66.24;96345.19;4976421;28;20613;-56
2023/01/02 06:17:26;;;;;;;73.13;36.53;;;4.70;99.90;;;4.55;66.23;96341.72;4980424;28;20635;-57
2023/01/02 06:19:54;;;;;;;64.07;34.10;;;4.70;99.90;;;4.56;66.30;96346.00;4979060;28;20838;-56
2023/01/02 06:22:21;;;;;;;78.83;38.37;;;4.70;99.90;;;4.58;66.13;96346.78;4977036;28;21056;-56
2023/01/02 06:24:48;;;;;;;71.63;35.53;;;4.70;99.90;;;4.61;66.07;96348.41;4979060;28;20558;-55
2023/01/02 06:27:16;;;;;;;74.00;34.27;;;4.70;99.90;;;4.63;66.04;96360.47;4978260;28;20952;-54
2023/01/02 06:29:43;;;;;;;57.97;34.47;;;4.80;99.90;;;4.65;66.36;96350.81;4976796;28;20890;-57
2023/01/02 06:32:10;;;;;;;69.60;33.43;;;4.80;99.90;;;4.71;66.13;96351.47;4978356;28;20471;-56
2023/01/02 06:34:39;;;;;;;64.27;33.00;;;4.90;99.90;;;4.85;65.94;96359.53;4978465;28;20494;-56
2023/01/02 06:37:06;;;;;;;66.63;30.97;;;5.00;99.90;;;5.05;65.87;96356.03;4978980;28;20526;-56
2023/01/02 06:39:33;;;;;;;59.80;30.63;;;5.20;99.90;;;5.31;65.33;96356.59;4977189;28;20460;-57
2023/01/02 06:42:00;;;;;;;65.13;31.80;;;5.50;99.90;;;5.61;64.76;96356.94;4974772;28;20481;-57
2023/01/02 06:44:28;;;;;;;65.30;30.87;;;5.80;99.90;;;5.93;64.65;96352.78;4975600;28;20467;-56
2023/01/02 06:46:55;;;;;;;69.27;35.43;;;6.10;99.90;;;6.26;63.39;96351.22;4973806;28;20458;-56
2023/01/02 06:49:22;;;;;;;73.80;33.70;;;6.50;99.30;;;6.60;62.60;96358.19;4978246;28;20883;-56
2023/01/02 06:51:51;;;;;;;61.73;32.47;;;6.80;98.80;;;6.93;62.31;96356.53;4976686;28;20458;-56
2023/01/02 06:54:18;;;;;;;60.27;34.17;;;7.20;98.40;;;7.27;61.42;96349.50;4979493;28;20502;-58
2023/01/02 06:56:45;;;;;;;58.63;33.13;;;7.50;97.70;;;7.63;61.16;96348.41;4975617;28;20455;-56
2023/01/02 06:59:13;;;;;;;61.00;32.10;;;7.90;97.20;;;8.04;59.93;96353.09;4979263;28;20466;-57
2023/01/02 07:01:40;;;;;;;66.80;33.13;;;8.30;96.60;;;8.43;59.20;96356.97;4977634;28;20454;-56
2023/01/02 07:04:13;;;;;;;65.87;33.20;;;8.70;96.20;;;8.77;58.03;96361.09;4977750;28;20576;-56
2023/01/02 07:06:40;;;;;;;76.93;35.30;;;9.00;95.00;;;9.05;55.93;96355.97;4982131;28;20478;-57
2023/01/02 07:09:09;;;;;;;75.63;35.23;;;9.20;93.20;;;9.26;57.33;96354.63;4980956;28;20455;-58
2023/01/02 07:11:36;;;;;;;68.70;34.80;;;9.50;94.20;;;9.47;56.78;96362.13;4980327;28;20447;-57
2023/01/02 07:14:03;;;;;;;66.67;33.13;;;9.70;93.70;;;9.64;56.57;96354.00;4978529;28;20494;-58
2023/01/02 07:16:30;;;;;;;62.90;32.80;;;9.90;93.20;;;9.84;56.02;96360.63;4985017;28;20589;-56
2023/01/02 07:18:58;;;;;;;68.73;34.13;;;10.10;92.30;;;10.07;55.20;96362.69;4983414;28;20466;-58
2023/01/02 07:21:25;;;;;;;72.60;34.27;;;10.40;91.70;;;10.26;55.08;96355.31;4979757;28;20454;-58
2023/01/02 07:23:52;;;;;;;71.87;35.10;;;10.60;91.30;;;10.45;54.61;96357.59;4980997;28;20489;-58
2023/01/02 07:26:21;;;;;;;76.30;36.07;;;10.80;91.00;;;10.55;53.70;96358.66;4977298;28;20462;-57
2023/01/02 07:28:48;;;;;;;79.53;36.33;;;10.90;90.00;;;10.45;53.74;96354.13;4978355;28;20524;-56
2023/01/02 07:31:17;;;;;;;86.40;38.77;;;10.80;89.90;;;10.20;54.02;96353.09;4978601;28;20974;-58
2023/01/02 07:33:44;;;;;;;88.50;34.53;;;10.60;89.10;;;9.89;54.04;96355.06;4977415;28;20510;-56
2023/01/02 07:36:13;;;;;;;89.77;36.50;;;10.20;88.60;;;9.54;54.64;96359.94;4979501;28;20550;-58
2023/01/02 07:38:40;;;;;;;92.77;40.40;;;9.90;90.50;;;9.18;55.01;96370.00;4977811;28;20587;-59
2023/01/02 07:41:14;;;;;;;89.70;37.30;;;9.50;90.50;;;8.84;55.90;96365.97;4979799;28;20472;-56
2023/01/02 07:43:43;;;;;;;79.97;32.50;;;9.10;91.40;;;8.56;56.64;96362.38;4977935;28;20506;-56
2023/01/02 07:46:10;;;;;;;75.10;33.63;;;8.80;91.80;;;8.36;56.60;96369.56;4980762;28;20450;-57
2023/01/02 07:48:37;;;;;;;75.07;30.10;;;8.60;92.20;;;8.21;57.39;96363.47;4976976;28;20475;-56
2023/01/02 07:51:05;;;;;;;69.60;28.37;;;8.40;92.60;;;8.11;57.63;96370.16;4975874;28;20475;-55
2023/01/02 07:53:33;;;;;;;82.07;32.80;;;8.20;92.90;;;7.99;57.73;96368.22;4983147;28;20486;-57
2023/01/02 07:56:00;;;;;;;79.83;31.30;;;8.10;93.00;;;7.83;57.57;96361.22;4984153;28;20458;-55
2023/01/02 07:58:28;;;;;;;81.13;34.60;;;8.00;93.40;;;7.73;58.21;96365.31;4980891;28;20489;-57
2023/01/02 08:00:56;;;;;;;88.50;34.97;;;7.80;93.70;;;7.64;58.59;96358.81;4982805;28;20459;-56
2023/01/02 08:03:24;;;;;;;100.33;38.87;;;7.80;94.00;;;7.59;58.70;96365.22;4982044;28;20470;-56
2023/01/02 08:05:51;;;;;;;102.10;41.37;;;7.70;94.20;;;7.59;59.19;96358.22;4983923;28;20447;-57
2023/01/02 08:08:18;;;;;;;85.20;40.37;;;7.70;94.60;;;7.74;59.02;96359.13;4982664;28;20895;-55
2023/01/02 08:10:46;;;;;;;89.53;40.70;;;7.80;94.70;;;8.04;58.57;96355.69;4981357;28;20474;-58
2023/01/02 08:13:13;;;;;;;94.83;41.20;;;8.00;94.80;;;8.47;58.30;96352.41;4983466;28;20478;-55
2023/01/02 08:15:40;;;;;;;95.30;42.67;;;8.40;94.90;;;9.00;57.56;96366.75;4980989;28;21020;-55
2023/01/02 08:18:09;;;;;;;94.07;41.20;;;8.90;94.60;;;9.59;56.83;96368.38;4984361;28;20474;-57
2023/01/02 08:20:36;;;;;;;91.77;40.73;;;9.30;94.20;;;10.16;55.83;96351.59;4986918;28;20462;-59
2023/01/02 08:23:03;;;;;;;93.00;40.60;;;9.90;93.60;;;10.71;54.88;96355.84;4986356;28;20529;-58
2023/01/02 08:25:30;;;;;;;85.40;38.93;;;10.40;92.50;;;11.21;53.82;96350.66;4984959;28;20899;-56
2023/01/02 08:27:58;;;;;;;95.70;40.23;;;10.80;91.70;;;11.69;53.25;96352.56;4986391;28;20494;-55
2023/01/02 08:30:25;;;;;;;73.27;38.40;;;11.30;91.00;;;12.10;52.01;96356.69;4980625;28;20456;-56
2023/01/02 08:32:52;;;;;;;80.83;40.37;;;11.70;89.80;;;12.46;51.36;96349.63;4983932;28;20801;-58
2023/01/02 08:35:21;;;;;;;73.37;36.93;;;12.10;88.40;;;12.76;50.16;96355.34;4975727;28;20877;-58
2023/01/02 08:37:48;;;;;;;81.23;37.30;;;12.40;85.10;;;13.00;49.75;96355.28;4985029;28;21023;-57
2023/01/02 08:40:16;;;;;;;72.10;37.83;;;12.60;83.40;;;13.22;48.98;96352.66;4983129;28;20911;-57
2023/01/02 08:42:43;;;;;;;96.70;44.10;;;12.80;82.70;;;13.47;48.98;96349.94;4981065;28;20566;-56
2023/01/02 08:45:11;;;;;;;86.70;45.07;;;13.00;82.40;;;13.75;48.61;96353.88;4980832;28;20454;-58
2023/01/02 08:47:38;;;;;;;92.50;46.20;;;13.30;80.90;;;13.94;48.04;96343.50;4986191;28;20481;-58
2023/01/02 08:50:06;;;;;;;85.97;45.13;;;13.50;79.30;;;14.15;47.64;96340.06;4978172;28;20454;-58
2023/01/02 08:52:35;;;;;;;94.30;44.90;;;13.70;78.50;;;14.38;47.67;96334.69;4985830;28;20906;-56
2023/01/02 08:55:04;;;;;;;82.23;43.50;;;13.90;78.10;;;14.50;46.00;96339.78;4980969;28;20502;-59
2023/01/02 08:57:31;;;;;;;85.40;41.13;;;14.10;73.60;;;14.60;45.49;96331.94;4987245;28;20561;-58
2023/01/02 08:59:58;;;;;;;77.13;42.10;;;14.10;72.90;;;14.72;45.04;96323.94;4979902;28;20463;-57
2023/01/02 09:02:26;;;;;;;81.33;42.40;;;14.20;71.60;;;14.81;45.10;96318.72;4982149;28;21226;-56
2023/01/02 09:04:53;;;;;;;78.20;44.47;;;14.30;71.50;;;14.95;46.30;96316.69;4978344;28;20517;-56
2023/01/02 09:07:20;;;;;;;81.53;43.70;;;14.40;73.90;;;15.11;45.76;96311.75;4976748;28;20473;-57
2023/01/02 09:09:49;;;;;;;87.40;45.20;;;14.60;71.90;;;15.21;44.08;96309.13;4979655;28;20557;-56
2023/01/02 09:12:16;;;;;;;81.97;41.67;;;14.70;69.60;;;15.33;45.01;96305.44;4983026;28;21084;-56
2023/01/02 09:14:44;;;;;;;92.27;45.57;;;14.80;71.00;;;15.41;42.27;96302.97;4979768;28;20503;-58
2023/01/02 09:17:11;;;;;;;86.67;46.93;;;14.90;65.30;;;15.39;42.59;96310.19;4985276;28;20571;-56
2023/01/02 09:19:38;;;;;;;92.27;49.87;;;14.90;65.40;;;15.35;42.82;96311.44;4976278;28;20476;-58
2023/01/02 09:22:05;;;;;;;88.50;52.20;;;14.80;66.00;;;15.22;42.40;96303.72;4980512;28;20486;-55
2023/01/02 09:24:32;;;;;;;88.93;52.47;;;14.70;64.40;;;15.12;44.41;96291.38;4978255;28;20462;-54
2023/01/02 09:27:01;;;;;;;98.70;54.70;;;14.60;67.50;;;15.12;42.21;96292.25;4979772;28;20478;-58
2023/01/02 09:29:28;;;;;;;110.80;56.33;;;14.50;64.40;;;15.04;43.03;96292.91;4980715;28;20537;-56
2023/01/02 09:31:56;;;;;;;105.03;54.90;;;14.50;65.40;;;15.02;44.65;96281.56;4980495;28;20963;-59
2023/01/02 09:34:23;;;;;;;119.17;60.60;;;14.40;67.80;;;15.21;44.71;96280.84;4974590;28;21011;-56
2023/01/02 09:36:50;;;;;;;107.90;59.87;;;14.50;68.70;;;15.41;42.43;96275.59;4979012;28;20478;-56
2023/01/02 09:39:18;;;;;;;125.37;64.33;;;14.70;65.20;;;15.58;42.15;96279.41;4980832;28;20963;-58
2023/01/02 09:41:47;;;;;;;119.40;60.20;;;14.90;64.70;;;15.65;41.79;96271.75;4980247;28;20462;-56
2023/01/02 09:44:17;;;;;;;124.20;59.20;;;15.00;63.60;;;15.67;42.68;96264.50;4980196;28;20466;-55
2023/01/02 09:46:49;;;;;;;106.33;58.97;;;15.00;64.20;;;15.78;43.64;96253.78;4977972;28;20455;-58
2023/01/02 09:49:18;;;;;;;121.83;61.97;;;15.10;65.90;;;16.03;43.53;96257.72;4979078;28;20469;-58
2023/01/02 09:51:45;;;;;;;112.07;57.07;;;15.30;67.20;;;16.41;43.05;96257.84;4974765;28;20460;-54
2023/01/02 09:54:18;;;;;;;108.20;58.83;;;15.70;66.00;;;16.75;43.01;96246.75;4978183;28;20454;-59
2023/01/02 09:56:47;;;;;;;109.70;56.60;;;16.00;66.40;;;17.16;42.59;96245.47;4977313;28;20989;-59
2023/01/02 09:59:18;;;;;;;104.37;55.73;;;16.40;65.80;;;17.59;42.39;96242.34;4977677;28;20470;-61
2023/01/02 10:01:59;;;;;;;117.87;58.37;;;16.80;64.80;;;18.03;41.38;96246.00;4979310;28;20462;-55
2023/01/02 10:04:38;;;;;;;110.63;59.93;;;17.20;63.70;;;18.41;39.77;96240.47;4970485;28;20510;-58
2023/01/02 10:07:09;;;;;;;119.53;61.50;;;17.60;60.80;;;18.67;40.09;96229.84;4978688;28;20474;-59
2023/01/02 10:09:44;;;;;;;115.47;57.80;;;17.90;59.90;;;18.90;36.98;96226.66;4976932;28;20521;-56
2023/01/02 10:12:15;;;;;;;113.27;62.93;;;18.10;55.70;;;18.88;38.23;96232.16;4972687;28;20484;-58
2023/01/02 10:14:52;;;;;;;105.83;60.47;;;18.10;57.00;;;19.01;39.06;96218.41;4977758;28;20585;-56
2023/01/02 10:17:20;;;;;;;111.23;61.67;;;18.20;59.00;;;19.29;37.77;96216.34;4978648;28;20505;-55
2023/01/02 10:19:51;;;;;;;113.17;62.60;;;18.50;56.70;;;19.49;36.34;96213.44;4979324;28;20475;-57
2023/01/02 10:22:21;;;;;;;113.27;62.30;;;18.70;54.80;;;19.64;38.01;96214.47;4977872;28;20474;-59
2023/01/02 10:24:58;;;;;;;117.60;64.10;;;18.90;56.50;;;19.81;36.42;96214.53;4976455;28;20965;-55
2023/01/02 10:27:29;;;;;;;121.87;64.57;;;19.00;54.60;;;19.92;36.63;96213.38;4975847;28;20483;-58